DAL2008 KSLC-KJAC
Flight info
| Callsign | DAL2008 |
|---|---|
| Flight time | 0h 36m |
| Altitude | 31000 |
| Route | RUGGD3 HOLTR ELLKK MOSSS |
| Aircraft | A359/H-SDE2E3GHIJ3J4J5LM1ORWXY/LB1D1 |
Departure
| Time | 2026-05-08 04:32 |
|---|---|
| Airport | Salt Lake City International Airport (KSLC) |
Arrival
| Time | 2026-05-08 05:09 |
|---|---|
| Airport | Jackson Hole Airport (KJAC) |
| Time | Latitude | Longitude | Altitude | Speed | Heading |
|---|---|---|---|---|---|
| 2026-05-08 03:58 | 40.78807 | -111.99161 | 4237 ft | 0 kts | 18° |
| 2026-05-08 04:20 | 40.78792 | -111.99168 | 4235 ft | 2 kts | 18° |
| 2026-05-08 04:20 | 40.78776 | -111.99174 | 4236 ft | 2 kts | 19° |
| 2026-05-08 04:21 | 40.78760 | -111.99178 | 4236 ft | 2 kts | 353° |
| 2026-05-08 04:21 | 40.78745 | -111.99172 | 4235 ft | 2 kts | 327° |
| 2026-05-08 04:21 | 40.78733 | -111.99157 | 4236 ft | 2 kts | 293° |
| 2026-05-08 04:21 | 40.78730 | -111.99136 | 4236 ft | 2 kts | 267° |
| 2026-05-08 04:22 | 40.78730 | -111.99132 | 4235 ft | 0 kts | 263° |
| 2026-05-08 04:26 | 40.78726 | -111.99177 | 4197 ft | 8 kts | 265° |
| 2026-05-08 04:26 | 40.78723 | -111.99258 | 4197 ft | 10 kts | 269° |
| 2026-05-08 04:26 | 40.78722 | -111.99352 | 4197 ft | 11 kts | 269° |
| 2026-05-08 04:26 | 40.78708 | -111.99446 | 4200 ft | 9 kts | 236° |
| 2026-05-08 04:27 | 40.78649 | -111.99466 | 4200 ft | 10 kts | 173° |
| 2026-05-08 04:27 | 40.78577 | -111.99454 | 4200 ft | 11 kts | 173° |
| 2026-05-08 04:27 | 40.78493 | -111.99443 | 4201 ft | 13 kts | 175° |
| 2026-05-08 04:27 | 40.78400 | -111.99434 | 4202 ft | 14 kts | 175° |
| 2026-05-08 04:28 | 40.78296 | -111.99423 | 4201 ft | 16 kts | 175° |
| 2026-05-08 04:28 | 40.78183 | -111.99411 | 4201 ft | 17 kts | 175° |
| 2026-05-08 04:28 | 40.78064 | -111.99420 | 4191 ft | 18 kts | 194° |
| 2026-05-08 04:28 | 40.77939 | -111.99437 | 4259 ft | 19 kts | 174° |
| 2026-05-08 04:29 | 40.77807 | -111.99420 | 4259 ft | 19 kts | 174° |
| 2026-05-08 04:29 | 40.77677 | -111.99404 | 4260 ft | 16 kts | 175° |
| 2026-05-08 04:29 | 40.77583 | -111.99395 | 4260 ft | 12 kts | 175° |
| 2026-05-08 04:29 | 40.77552 | -111.99395 | 4260 ft | 0 kts | 189° |
| 2026-05-08 04:30 | 40.77547 | -111.99398 | 4260 ft | 2 kts | 202° |
| 2026-05-08 04:30 | 40.77523 | -111.99438 | 4261 ft | 10 kts | 246° |
| 2026-05-08 04:30 | 40.77528 | -111.99523 | 4262 ft | 8 kts | 310° |
| 2026-05-08 04:31 | 40.77586 | -111.99560 | 4262 ft | 12 kts | 351° |
| 2026-05-08 04:31 | 40.77740 | -111.99580 | 4261 ft | 40 kts | 355° |
| 2026-05-08 04:31 | 40.78255 | -111.99636 | 4236 ft | 106 kts | 354° |
| 2026-05-08 04:31 | 40.79171 | -111.99746 | 4238 ft | 157 kts | 356° |
| 2026-05-08 04:32 | 40.80334 | -111.99889 | 4699 ft | 166 kts | 354° |
| 2026-05-08 04:32 | 40.81491 | -112.00018 | 5311 ft | 172 kts | 353° |
| 2026-05-08 04:32 | 40.82767 | -112.00185 | 5636 ft | 197 kts | 353° |
| 2026-05-08 04:32 | 40.84231 | -112.00383 | 5860 ft | 226 kts | 353° |
| 2026-05-08 04:33 | 40.85890 | -112.00600 | 6144 ft | 252 kts | 353° |
| 2026-05-08 04:33 | 40.87711 | -112.00831 | 6527 ft | 271 kts | 354° |
| 2026-05-08 04:33 | 40.89621 | -112.01069 | 7150 ft | 278 kts | 352° |
| 2026-05-08 04:33 | 40.91555 | -112.01313 | 7997 ft | 280 kts | 353° |
| 2026-05-08 04:34 | 40.93494 | -112.01553 | 9002 ft | 279 kts | 351° |
| 2026-05-08 04:34 | 40.95433 | -112.01797 | 9970 ft | 281 kts | 351° |
| 2026-05-08 04:34 | 40.97386 | -112.02046 | 10635 ft | 295 kts | 351° |
| 2026-05-08 04:34 | 40.99533 | -112.02326 | 10992 ft | 318 kts | 351° |
| 2026-05-08 04:35 | 41.01785 | -112.02523 | 11352 ft | 340 kts | 357° |
| 2026-05-08 04:35 | 41.04206 | -112.02025 | 11951 ft | 357 kts | 14° |
| 2026-05-08 04:35 | 41.06459 | -112.00534 | 12718 ft | 368 kts | 28° |
| 2026-05-08 04:35 | 41.08618 | -111.98652 | 13495 ft | 375 kts | 30° |
| 2026-05-08 04:36 | 41.10764 | -111.96707 | 14158 ft | 381 kts | 30° |
| 2026-05-08 04:36 | 41.12947 | -111.94710 | 14974 ft | 381 kts | 30° |
| 2026-05-08 04:36 | 41.15128 | -111.92709 | 15861 ft | 380 kts | 29° |
| 2026-05-08 04:36 | 41.17305 | -111.90710 | 16728 ft | 382 kts | 29° |
| 2026-05-08 04:37 | 41.19492 | -111.88698 | 17551 ft | 383 kts | 29° |
| 2026-05-08 04:37 | 41.21690 | -111.86685 | 18359 ft | 385 kts | 28° |
| 2026-05-08 04:37 | 41.23904 | -111.84658 | 19021 ft | 388 kts | 29° |
| 2026-05-08 04:37 | 41.26120 | -111.82614 | 19685 ft | 391 kts | 29° |
| 2026-05-08 04:38 | 41.28370 | -111.80540 | 20307 ft | 395 kts | 29° |
| 2026-05-08 04:38 | 41.30639 | -111.78447 | 21004 ft | 398 kts | 29° |
| 2026-05-08 04:38 | 41.32920 | -111.76341 | 21716 ft | 400 kts | 30° |
| 2026-05-08 04:38 | 41.35212 | -111.74223 | 22454 ft | 403 kts | 30° |
| 2026-05-08 04:39 | 41.37543 | -111.72140 | 23144 ft | 404 kts | 27° |
| 2026-05-08 04:39 | 41.40042 | -111.70460 | 23781 ft | 402 kts | 17° |
| 2026-05-08 04:39 | 41.42688 | -111.69270 | 24343 ft | 402 kts | 13° |
| 2026-05-08 04:39 | 41.45381 | -111.68211 | 24918 ft | 405 kts | 12° |
| 2026-05-08 04:40 | 41.48096 | -111.67159 | 25488 ft | 408 kts | 12° |
| 2026-05-08 04:40 | 41.50831 | -111.66096 | 26080 ft | 410 kts | 11° |
| 2026-05-08 04:40 | 41.53576 | -111.65024 | 26645 ft | 413 kts | 11° |
| 2026-05-08 04:40 | 41.56342 | -111.63941 | 27267 ft | 415 kts | 11° |
| 2026-05-08 04:41 | 41.59113 | -111.62852 | 27898 ft | 417 kts | 11° |
| 2026-05-08 04:41 | 41.61866 | -111.61770 | 28444 ft | 420 kts | 11° |
| 2026-05-08 04:41 | 41.64681 | -111.60662 | 29002 ft | 423 kts | 11° |
| 2026-05-08 04:41 | 41.67506 | -111.59548 | 29595 ft | 424 kts | 10° |
| 2026-05-08 04:42 | 41.70349 | -111.58428 | 30096 ft | 427 kts | 10° |
| 2026-05-08 04:42 | 41.73213 | -111.57300 | 30486 ft | 431 kts | 10° |
| 2026-05-08 04:42 | 41.76099 | -111.56160 | 30813 ft | 435 kts | 10° |
| 2026-05-08 04:42 | 41.79012 | -111.55046 | 30926 ft | 434 kts | 8° |
| 2026-05-08 04:43 | 41.84921 | -111.53558 | 30937 ft | 432 kts | 4° |
| 2026-05-08 04:43 | 41.90853 | -111.52225 | 30939 ft | 432 kts | 4° |
| 2026-05-08 04:44 | 41.96789 | -111.50886 | 30962 ft | 433 kts | 4° |
| 2026-05-08 04:44 | 42.02708 | -111.49545 | 30947 ft | 431 kts | 4° |
| 2026-05-08 04:45 | 42.08613 | -111.48212 | 30938 ft | 430 kts | 4° |
| 2026-05-08 04:45 | 42.14518 | -111.46871 | 30941 ft | 430 kts | 4° |
| 2026-05-08 04:46 | 42.20419 | -111.45525 | 30943 ft | 431 kts | 5° |
| 2026-05-08 04:46 | 42.26343 | -111.44175 | 30944 ft | 432 kts | 5° |
| 2026-05-08 04:47 | 42.32203 | -111.42260 | 30946 ft | 437 kts | 13° |
| 2026-05-08 04:47 | 42.37953 | -111.39498 | 30966 ft | 439 kts | 14° |
| 2026-05-08 04:48 | 42.43681 | -111.36601 | 30952 ft | 439 kts | 15° |
| 2026-05-08 04:48 | 42.49408 | -111.33712 | 30956 ft | 439 kts | 14° |
| 2026-05-08 04:49 | 42.55141 | -111.30844 | 30979 ft | 439 kts | 14° |
| 2026-05-08 04:49 | 42.60872 | -111.27981 | 30996 ft | 439 kts | 14° |
| 2026-05-08 04:50 | 42.66602 | -111.25114 | 31012 ft | 439 kts | 14° |
| 2026-05-08 04:50 | 42.72339 | -111.22236 | 31021 ft | 439 kts | 14° |
| 2026-05-08 04:51 | 42.78070 | -111.19354 | 31032 ft | 439 kts | 14° |
| 2026-05-08 04:51 | 42.83801 | -111.16471 | 31026 ft | 439 kts | 14° |
| 2026-05-08 04:52 | 42.89494 | -111.13599 | 30987 ft | 440 kts | 14° |
| 2026-05-08 04:52 | 42.94843 | -111.09306 | 30963 ft | 454 kts | 30° |
| 2026-05-08 04:53 | 42.99831 | -111.03955 | 30969 ft | 456 kts | 31° |
| 2026-05-08 04:53 | 43.04791 | -110.98559 | 30975 ft | 455 kts | 31° |
| 2026-05-08 04:54 | 43.09733 | -110.93168 | 30819 ft | 459 kts | 31° |
| 2026-05-08 04:54 | 43.12246 | -110.90428 | 30294 ft | 461 kts | 31° |
| 2026-05-08 04:54 | 43.14758 | -110.87682 | 29342 ft | 463 kts | 31° |
| 2026-05-08 04:55 | 43.17260 | -110.84938 | 28654 ft | 460 kts | 31° |
| 2026-05-08 04:55 | 43.19746 | -110.82208 | 27973 ft | 456 kts | 31° |
| 2026-05-08 04:55 | 43.22210 | -110.79502 | 27305 ft | 452 kts | 31° |
| 2026-05-08 04:55 | 43.24655 | -110.76813 | 26654 ft | 448 kts | 32° |
| 2026-05-08 04:56 | 43.27078 | -110.74148 | 26013 ft | 445 kts | 32° |
| 2026-05-08 04:56 | 43.29485 | -110.71499 | 25363 ft | 442 kts | 32° |
| 2026-05-08 04:56 | 43.31877 | -110.68864 | 24719 ft | 440 kts | 32° |
| 2026-05-08 04:56 | 43.34255 | -110.66240 | 24069 ft | 437 kts | 32° |
| 2026-05-08 04:57 | 43.36614 | -110.63639 | 23439 ft | 435 kts | 32° |
| 2026-05-08 04:57 | 43.38967 | -110.61042 | 22706 ft | 432 kts | 33° |
| 2026-05-08 04:57 | 43.41289 | -110.58472 | 22047 ft | 428 kts | 33° |
| 2026-05-08 04:57 | 43.43602 | -110.55906 | 21401 ft | 424 kts | 33° |
| 2026-05-08 04:58 | 43.45887 | -110.53372 | 20774 ft | 420 kts | 33° |
| 2026-05-08 04:58 | 43.48158 | -110.50852 | 20106 ft | 419 kts | 34° |
| 2026-05-08 04:58 | 43.50421 | -110.48338 | 19439 ft | 417 kts | 34° |
| 2026-05-08 04:58 | 43.52674 | -110.45834 | 18797 ft | 416 kts | 34° |
| 2026-05-08 04:59 | 43.54167 | -110.44176 | 18352 ft | 416 kts | 35° |
| 2026-05-08 04:59 | 43.56412 | -110.41670 | 17603 ft | 415 kts | 35° |
| 2026-05-08 04:59 | 43.58650 | -110.39171 | 16867 ft | 414 kts | 35° |
| 2026-05-08 04:59 | 43.60882 | -110.36682 | 16226 ft | 412 kts | 38° |
| 2026-05-08 05:00 | 43.63106 | -110.34195 | 15424 ft | 411 kts | 35° |
| 2026-05-08 05:00 | 43.65339 | -110.31767 | 14762 ft | 405 kts | 31° |
| 2026-05-08 05:00 | 43.67769 | -110.30045 | 14240 ft | 384 kts | 14° |
| 2026-05-08 05:00 | 43.70330 | -110.29477 | 13778 ft | 367 kts | 355° |
| 2026-05-08 05:01 | 43.72870 | -110.29970 | 13640 ft | 365 kts | 345° |
| 2026-05-08 05:01 | 43.75292 | -110.30796 | 13392 ft | 355 kts | 343° |
| 2026-05-08 05:01 | 43.77638 | -110.31649 | 13207 ft | 342 kts | 343° |
| 2026-05-08 05:01 | 43.79862 | -110.32591 | 12982 ft | 326 kts | 334° |
| 2026-05-08 05:02 | 43.81617 | -110.34406 | 12805 ft | 310 kts | 308° |
| 2026-05-08 05:02 | 43.82504 | -110.37025 | 12594 ft | 296 kts | 281° |
| 2026-05-08 05:02 | 43.82506 | -110.39772 | 12345 ft | 276 kts | 266° |
| 2026-05-08 05:02 | 43.82293 | -110.42323 | 12129 ft | 258 kts | 266° |
| 2026-05-08 05:03 | 43.82086 | -110.44707 | 11887 ft | 241 kts | 266° |
| 2026-05-08 05:03 | 43.81902 | -110.46975 | 11653 ft | 236 kts | 267° |
| 2026-05-08 05:03 | 43.81730 | -110.49234 | 11411 ft | 236 kts | 267° |
| 2026-05-08 05:03 | 43.81560 | -110.51495 | 11159 ft | 236 kts | 267° |
| 2026-05-08 05:04 | 43.81211 | -110.53684 | 10950 ft | 238 kts | 253° |
| 2026-05-08 05:04 | 43.80560 | -110.55793 | 10610 ft | 238 kts | 248° |
| 2026-05-08 05:04 | 43.79847 | -110.57855 | 10284 ft | 238 kts | 248° |
| 2026-05-08 05:04 | 43.79125 | -110.59927 | 10041 ft | 238 kts | 247° |
| 2026-05-08 05:05 | 43.78294 | -110.61890 | 9783 ft | 238 kts | 233° |
| 2026-05-08 05:05 | 43.77098 | -110.63476 | 9537 ft | 239 kts | 223° |
| 2026-05-08 05:05 | 43.75810 | -110.64886 | 9211 ft | 230 kts | 222° |
| 2026-05-08 05:05 | 43.74552 | -110.66231 | 8927 ft | 229 kts | 220° |
| 2026-05-08 05:06 | 43.73287 | -110.67509 | 8773 ft | 222 kts | 212° |
| 2026-05-08 05:06 | 43.71898 | -110.68368 | 8533 ft | 216 kts | 201° |
| 2026-05-08 05:06 | 43.70514 | -110.69042 | 8401 ft | 205 kts | 200° |
| 2026-05-08 05:06 | 43.69199 | -110.69668 | 8347 ft | 189 kts | 199° |
| 2026-05-08 05:07 | 43.68011 | -110.70242 | 8220 ft | 179 kts | 200° |
| 2026-05-08 05:07 | 43.66834 | -110.70783 | 7862 ft | 184 kts | 201° |
| 2026-05-08 05:07 | 43.65582 | -110.71317 | 7449 ft | 187 kts | 202° |
| 2026-05-08 05:07 | 43.64396 | -110.71923 | 7119 ft | 179 kts | 206° |
| 2026-05-08 05:08 | 43.63262 | -110.72536 | 6846 ft | 169 kts | 202° |
| 2026-05-08 05:08 | 43.62187 | -110.73050 | 6616 ft | 158 kts | 203° |
| 2026-05-08 05:08 | 43.61150 | -110.73562 | 6436 ft | 158 kts | 202° |
| 2026-05-08 05:08 | 43.60267 | -110.74006 | 6420 ft | 89 kts | 199° |
| 2026-05-08 05:09 | 43.60008 | -110.74128 | 6423 ft | 8 kts | 199° |
| 2026-05-08 05:09 | 43.60005 | -110.74130 | 6424 ft | 0 kts | 199° |
| 2026-05-08 05:09 | 43.59974 | -110.74142 | 6426 ft | 20 kts | 189° |
| 2026-05-08 05:09 | 43.59916 | -110.74104 | 6428 ft | 7 kts | 127° |
| 2026-05-08 05:10 | 43.59901 | -110.74045 | 6424 ft | 5 kts | 84° |
| 2026-05-08 05:10 | 43.60023 | -110.73962 | 6423 ft | 14 kts | 18° |
| 2026-05-08 05:10 | 43.60109 | -110.73922 | 6423 ft | 13 kts | 19° |
| 2026-05-08 05:11 | 43.60168 | -110.73893 | 6422 ft | 10 kts | 19° |
| 2026-05-08 05:11 | 43.60256 | -110.73850 | 6424 ft | 15 kts | 19° |
| 2026-05-08 05:11 | 43.60348 | -110.73805 | 6423 ft | 14 kts | 19° |
| 2026-05-08 05:11 | 43.60440 | -110.73760 | 6425 ft | 12 kts | 19° |
| 2026-05-08 05:12 | 43.60516 | -110.73722 | 6424 ft | 7 kts | 23° |
| 2026-05-08 05:12 | 43.60521 | -110.73709 | 6423 ft | 0 kts | 57° |
| 2026-05-08 05:12 | 43.60523 | -110.73695 | 6424 ft | 2 kts | 84° |
| 2026-05-08 05:12 | 43.60522 | -110.73690 | 6427 ft | 0 kts | 91° |
| 2026-05-08 05:13 | 43.60515 | -110.73659 | 6426 ft | 1 kts | 111° |
| 2026-05-08 05:13 | 43.60513 | -110.73652 | 6425 ft | 7 kts | 111° |
| 2026-05-08 05:13 | 43.60510 | -110.73641 | 6425 ft | 0 kts | 111° |